sensor_id;sensor_type;location;lat;lon;timestamp;temperature;humidity
18041;DHT22;9145;48.588;9.250;2024-01-15T00:00:13;-1.00;99.90
18041;DHT22;9145;48.588;9.250;2024-01-15T00:02:42;-1.00;99.90
18041;DHT22;9145;48.588;9.250;2024-01-15T00:05:08;-0.90;99.90
18041;DHT22;9145;48.588;9.250;2024-01-15T00:07:35;-0.80;99.90
18041;DHT22;9145;48.588;9.250;2024-01-15T00:10:02;-0.80;99.90
18041;DHT22;9145;48.588;9.250;2024-01-15T00:12:29;-0.80;99.90
18041;DHT22;9145;48.588;9.250;2024-01-15T00:14:56;-0.70;99.90
18041;DHT22;9145;48.588;9.250;2024-01-15T00:17:23;-0.70;99.90
18041;DHT22;9145;48.588;9.250;2024-01-15T00:19:52;-0.70;99.90
18041;DHT22;9145;48.588;9.250;2024-01-15T00:22:18;-0.60;99.90
18041;DHT22;9145;48.588;9.250;2024-01-15T00:24:45;-0.60;99.90
18041;DHT22;9145;48.588;9.250;2024-01-15T00:27:12;-0.60;99.90
18041;DHT22;9145;48.588;9.250;2024-01-15T00:29:39;-0.60;99.90
18041;DHT22;9145;48.588;9.250;2024-01-15T00:32:06;-0.50;99.90
18041;DHT22;9145;48.588;9.250;2024-01-15T00:34:32;-0.50;99.90
18041;DHT22;9145;48.588;9.250;2024-01-15T00:37:01;-0.50;99.90
18041;DHT22;9145;48.588;9.250;2024-01-15T00:39:28;-0.50;99.90
18041;DHT22;9145;48.588;9.250;2024-01-15T00:41:55;-0.50;99.90
18041;DHT22;9145;48.588;9.250;2024-01-15T00:44:22;-0.50;99.90
18041;DHT22;9145;48.588;9.250;2024-01-15T00:46:48;-0.40;99.90
18041;DHT22;9145;48.588;9.250;2024-01-15T00:49:15;-0.40;99.90
18041;DHT22;9145;48.588;9.250;2024-01-15T00:51:42;-0.40;99.90
18041;DHT22;9145;48.588;9.250;2024-01-15T00:54:11;-0.40;99.90
18041;DHT22;9145;48.588;9.250;2024-01-15T00:56:37;-0.40;99.90
18041;DHT22;9145;48.588;9.250;2024-01-15T00:59:04;-0.40;99.90
18041;DHT22;9145;48.588;9.250;2024-01-15T01:01:31;-0.40;99.90
18041;DHT22;9145;48.588;9.250;2024-01-15T01:03:58;-0.50;99.90
18041;DHT22;9145;48.588;9.250;2024-01-15T01:06:25;-0.40;99.90
18041;DHT22;9145;48.588;9.250;2024-01-15T01:08:52;-0.40;99.90
18041;DHT22;9145;48.588;9.250;2024-01-15T01:11:20;-0.50;99.90
18041;DHT22;9145;48.588;9.250;2024-01-15T01:13:46;-0.50;99.90
18041;DHT22;9145;48.588;9.250;2024-01-15T01:16:12;-0.50;99.90
18041;DHT22;9145;48.588;9.250;2024-01-15T01:18:39;-0.50;99.90
18041;DHT22;9145;48.588;9.250;2024-01-15T01:21:06;-0.50;99.90
18041;DHT22;9145;48.588;9.250;2024-01-15T01:23:33;-0.50;99.90
18041;DHT22;9145;48.588;9.250;2024-01-15T01:26:00;-0.50;99.90
18041;DHT22;9145;48.588;9.250;2024-01-15T01:28:28;-0.50;99.90
18041;DHT22;9145;48.588;9.250;2024-01-15T01:30:55;-0.50;99.90
18041;DHT22;9145;48.588;9.250;2024-01-15T01:33:21;-0.40;99.90
18041;DHT22;9145;48.588;9.250;2024-01-15T01:35:48;-0.40;99.90
18041;DHT22;9145;48.588;9.250;2024-01-15T01:38:15;-0.40;99.90
18041;DHT22;9145;48.588;9.250;2024-01-15T01:40:42;-0.40;99.90
18041;DHT22;9145;48.588;9.250;2024-01-15T01:43:09;-0.40;99.90
18041;DHT22;9145;48.588;9.250;2024-01-15T01:45:37;-0.40;99.90
18041;DHT22;9145;48.588;9.250;2024-01-15T01:48:05;-0.40;99.90
18041;DHT22;9145;48.588;9.250;2024-01-15T01:50:32;-0.40;99.90
18041;DHT22;9145;48.588;9.250;2024-01-15T01:52:59;-0.40;99.90
18041;DHT22;9145;48.588;9.250;2024-01-15T01:55:27;-0.50;99.90
18041;DHT22;9145;48.588;9.250;2024-01-15T01:57:56;-0.50;99.90
18041;DHT22;9145;48.588;9.250;2024-01-15T02:00:23;-0.50;99.90
18041;DHT22;9145;48.588;9.250;2024-01-15T02:02:51;-0.50;99.90
18041;DHT22;9145;48.588;9.250;2024-01-15T02:05:19;-0.50;99.90
18041;DHT22;9145;48.588;9.250;2024-01-15T02:07:47;-0.50;99.90
18041;DHT22;9145;48.588;9.250;2024-01-15T02:10:14;-0.60;99.90
18041;DHT22;9145;48.588;9.250;2024-01-15T02:12:42;-0.60;99.90
18041;DHT22;9145;48.588;9.250;2024-01-15T02:15:09;-0.60;99.90
18041;DHT22;9145;48.588;9.250;2024-01-15T02:17:58;-0.60;99.90
18041;DHT22;9145;48.588;9.250;2024-01-15T02:20:25;-0.50;99.90
18041;DHT22;9145;48.588;9.250;2024-01-15T02:22:52;-0.50;99.90
18041;DHT22;9145;48.588;9.250;2024-01-15T02:25:20;-0.50;99.90
18041;DHT22;9145;48.588;9.250;2024-01-15T02:27:47;-0.60;99.90
18041;DHT22;9145;48.588;9.250;2024-01-15T02:30:14;-0.50;99.90
18041;DHT22;9145;48.588;9.250;2024-01-15T02:32:42;-0.50;99.90
18041;DHT22;9145;48.588;9.250;2024-01-15T02:35:08;-0.50;99.90
18041;DHT22;9145;48.588;9.250;2024-01-15T02:37:36;-0.50;99.90
18041;DHT22;9145;48.588;9.250;2024-01-15T02:40:03;-0.60;99.90
18041;DHT22;9145;48.588;9.250;2024-01-15T02:42:31;-0.60;99.90
18041;DHT22;9145;48.588;9.250;2024-01-15T02:44:58;-0.60;99.90
18041;DHT22;9145;48.588;9.250;2024-01-15T02:47:25;-0.50;99.90
18041;DHT22;9145;48.588;9.250;2024-01-15T02:49:52;-0.50;99.90
18041;DHT22;9145;48.588;9.250;2024-01-15T02:52:18;-0.50;99.90
18041;DHT22;9145;48.588;9.250;2024-01-15T02:54:45;-0.50;99.90
18041;DHT22;9145;48.588;9.250;2024-01-15T02:57:12;-0.50;99.90
18041;DHT22;9145;48.588;9.250;2024-01-15T02:59:40;-0.50;99.90
18041;DHT22;9145;48.588;9.250;2024-01-15T03:02:07;-0.50;99.90
18041;DHT22;9145;48.588;9.250;2024-01-15T03:04:34;-0.40;99.90
18041;DHT22;9145;48.588;9.250;2024-01-15T03:07:00;-0.40;99.90
18041;DHT22;9145;48.588;9.250;2024-01-15T03:09:27;-0.40;99.90
18041;DHT22;9145;48.588;9.250;2024-01-15T03:11:54;-0.40;99.90
18041;DHT22;9145;48.588;9.250;2024-01-15T03:14:21;-0.40;99.90
18041;DHT22;9145;48.588;9.250;2024-01-15T03:16:51;-0.40;99.90
18041;DHT22;9145;48.588;9.250;2024-01-15T03:19:18;-0.40;99.90
18041;DHT22;9145;48.588;9.250;2024-01-15T03:21:45;-0.40;99.90
18041;DHT22;9145;48.588;9.250;2024-01-15T03:24:11;-0.40;99.90
18041;DHT22;9145;48.588;9.250;2024-01-15T03:26:38;-0.40;99.90
18041;DHT22;9145;48.588;9.250;2024-01-15T03:29:05;-0.40;99.90
18041;DHT22;9145;48.588;9.250;2024-01-15T03:31:32;-0.40;99.90
18041;DHT22;9145;48.588;9.250;2024-01-15T03:34:00;-0.40;99.90
18041;DHT22;9145;48.588;9.250;2024-01-15T03:36:27;-0.40;99.90
18041;DHT22;9145;48.588;9.250;2024-01-15T03:38:54;-0.40;99.90
18041;DHT22;9145;48.588;9.250;2024-01-15T03:41:21;-0.40;99.90
18041;DHT22;9145;48.588;9.250;2024-01-15T03:43:48;-0.40;99.90
18041;DHT22;9145;48.588;9.250;2024-01-15T03:46:14;-0.40;99.90
18041;DHT22;9145;48.588;9.250;2024-01-15T03:48:41;-0.40;99.90
18041;DHT22;9145;48.588;9.250;2024-01-15T03:51:09;-0.40;99.90
18041;DHT22;9145;48.588;9.250;2024-01-15T03:53:38;-0.40;99.90
18041;DHT22;9145;48.588;9.250;2024-01-15T03:56:05;-0.40;99.90
18041;DHT22;9145;48.588;9.250;2024-01-15T03:58:31;-0.30;99.90
18041;DHT22;9145;48.588;9.250;2024-01-15T04:00:58;-0.30;99.90
18041;DHT22;9145;48.588;9.250;2024-01-15T04:03:25;-0.30;99.90
18041;DHT22;9145;48.588;9.250;2024-01-15T04:05:52;-0.20;99.90
18041;DHT22;9145;48.588;9.250;2024-01-15T04:08:20;-0.20;99.90
18041;DHT22;9145;48.588;9.250;2024-01-15T04:10:47;-0.20;99.90
18041;DHT22;9145;48.588;9.250;2024-01-15T04:13:14;-0.10;99.90
18041;DHT22;9145;48.588;9.250;2024-01-15T04:15:40;-0.10;99.90
18041;DHT22;9145;48.588;9.250;2024-01-15T04:18:07;0.00;99.90
18041;DHT22;9145;48.588;9.250;2024-01-15T04:20:34;0.10;99.90
18041;DHT22;9145;48.588;9.250;2024-01-15T04:23:01;0.10;99.90
18041;DHT22;9145;48.588;9.250;2024-01-15T04:25:29;0.10;99.90
18041;DHT22;9145;48.588;9.250;2024-01-15T04:27:56;0.10;99.90
18041;DHT22;9145;48.588;9.250;2024-01-15T04:30:23;0.10;99.90
18041;DHT22;9145;48.588;9.250;2024-01-15T04:32:50;0.00;99.90
18041;DHT22;9145;48.588;9.250;2024-01-15T04:35:17;0.00;99.90
18041;DHT22;9145;48.588;9.250;2024-01-15T04:37:43;0.00;99.90
18041;DHT22;9145;48.588;9.250;2024-01-15T04:40:11;0.00;99.90
18041;DHT22;9145;48.588;9.250;2024-01-15T04:42:39;0.00;99.90
18041;DHT22;9145;48.588;9.250;2024-01-15T04:45:06;0.00;99.90
18041;DHT22;9145;48.588;9.250;2024-01-15T04:47:33;0.00;99.90
18041;DHT22;9145;48.588;9.250;2024-01-15T04:50:02;0.00;99.90
18041;DHT22;9145;48.588;9.250;2024-01-15T04:52:29;0.00;99.90
18041;DHT22;9145;48.588;9.250;2024-01-15T04:54:56;0.00;99.90
18041;DHT22;9145;48.588;9.250;2024-01-15T04:57:23;0.00;99.90
18041;DHT22;9145;48.588;9.250;2024-01-15T04:59:51;0.00;99.90
18041;DHT22;9145;48.588;9.250;2024-01-15T05:02:17;0.00;99.90
18041;DHT22;9145;48.588;9.250;2024-01-15T05:04:44;0.00;99.90
18041;DHT22;9145;48.588;9.250;2024-01-15T05:07:11;0.00;99.90
18041;DHT22;9145;48.588;9.250;2024-01-15T05:09:38;0.00;99.90
18041;DHT22;9145;48.588;9.250;2024-01-15T05:12:05;0.00;99.90
18041;DHT22;9145;48.588;9.250;2024-01-15T05:14:32;0.00;99.90
18041;DHT22;9145;48.588;9.250;2024-01-15T05:17:00;0.00;99.90
18041;DHT22;9145;48.588;9.250;2024-01-15T05:19:27;0.00;99.90
18041;DHT22;9145;48.588;9.250;2024-01-15T05:21:54;0.00;99.90
18041;DHT22;9145;48.588;9.250;2024-01-15T05:24:21;0.00;99.90
18041;DHT22;9145;48.588;9.250;2024-01-15T05:26:47;0.00;99.90
18041;DHT22;9145;48.588;9.250;2024-01-15T05:29:14;0.00;99.90
18041;DHT22;9145;48.588;9.250;2024-01-15T05:31:41;0.00;99.90
18041;DHT22;9145;48.588;9.250;2024-01-15T05:34:09;0.00;99.90
18041;DHT22;9145;48.588;9.250;2024-01-15T05:36:36;0.10;99.90
18041;DHT22;9145;48.588;9.250;2024-01-15T05:39:03;0.10;99.90
18041;DHT22;9145;48.588;9.250;2024-01-15T05:41:30;0.10;99.90
18041;DHT22;9145;48.588;9.250;2024-01-15T05:43:56;0.10;99.90
18041;DHT22;9145;48.588;9.250;2024-01-15T05:46:23;0.10;99.90
18041;DHT22;9145;48.588;9.250;2024-01-15T05:48:50;0.10;99.90
18041;DHT22;9145;48.588;9.250;2024-01-15T05:51:18;0.10;99.90
18041;DHT22;9145;48.588;9.250;2024-01-15T05:53:45;0.10;99.90
18041;DHT22;9145;48.588;9.250;2024-01-15T05:56:12;0.10;99.90
18041;DHT22;9145;48.588;9.250;2024-01-15T05:58:38;0.10;99.90
18041;DHT22;9145;48.588;9.250;2024-01-15T06:01:05;0.20;99.90
18041;DHT22;9145;48.588;9.250;2024-01-15T06:03:32;0.20;99.90
18041;DHT22;9145;48.588;9.250;2024-01-15T06:05:59;0.20;99.90
18041;DHT22;9145;48.588;9.250;2024-01-15T06:08:27;0.20;99.90
18041;DHT22;9145;48.588;9.250;2024-01-15T06:10:56;0.10;99.90
18041;DHT22;9145;48.588;9.250;2024-01-15T06:13:23;0.10;99.90
18041;DHT22;9145;48.588;9.250;2024-01-15T06:15:49;0.20;99.90
18041;DHT22;9145;48.588;9.250;2024-01-15T06:18:16;0.20;99.90
18041;DHT22;9145;48.588;9.250;2024-01-15T06:20:43;0.10;99.90
18041;DHT22;9145;48.588;9.250;2024-01-15T06:23:10;0.10;99.90
18041;DHT22;9145;48.588;9.250;2024-01-15T06:25:38;0.10;99.90
18041;DHT22;9145;48.588;9.250;2024-01-15T06:28:05;0.10;99.90
18041;DHT22;9145;48.588;9.250;2024-01-15T06:30:32;0.10;99.90
18041;DHT22;9145;48.588;9.250;2024-01-15T06:32:59;0.10;99.90
18041;DHT22;9145;48.588;9.250;2024-01-15T06:35:25;0.10;99.90
18041;DHT22;9145;48.588;9.250;2024-01-15T06:37:52;0.20;99.90
18041;DHT22;9145;48.588;9.250;2024-01-15T06:40:19;0.10;99.90
18041;DHT22;9145;48.588;9.250;2024-01-15T06:42:47;0.20;99.90
18041;DHT22;9145;48.588;9.250;2024-01-15T06:45:14;0.20;99.90
18041;DHT22;9145;48.588;9.250;2024-01-15T06:47:41;0.20;99.90
18041;DHT22;9145;48.588;9.250;2024-01-15T06:50:08;0.10;99.90
18041;DHT22;9145;48.588;9.250;2024-01-15T06:52:35;0.10;99.90
18041;DHT22;9145;48.588;9.250;2024-01-15T06:55:01;0.20;99.90
18041;DHT22;9145;48.588;9.250;2024-01-15T06:57:28;0.20;99.90
18041;DHT22;9145;48.588;9.250;2024-01-15T06:59:56;0.20;99.90
18041;DHT22;9145;48.588;9.250;2024-01-15T07:02:23;0.10;99.90
18041;DHT22;9145;48.588;9.250;2024-01-15T07:04:49;0.20;99.90
18041;DHT22;9145;48.588;9.250;2024-01-15T07:07:16;0.20;99.90
18041;DHT22;9145;48.588;9.250;2024-01-15T07:09:43;0.20;99.90
18041;DHT22;9145;48.588;9.250;2024-01-15T07:12:10;0.20;99.90
18041;DHT22;9145;48.588;9.250;2024-01-15T07:14:36;0.20;99.90
18041;DHT22;9145;48.588;9.250;2024-01-15T07:17:05;0.20;99.90
18041;DHT22;9145;48.588;9.250;2024-01-15T07:19:32;0.20;99.90
18041;DHT22;9145;48.588;9.250;2024-01-15T07:21:58;0.20;99.90
18041;DHT22;9145;48.588;9.250;2024-01-15T07:24:25;0.20;99.90
18041;DHT22;9145;48.588;9.250;2024-01-15T07:26:52;0.20;99.90
18041;DHT22;9145;48.588;9.250;2024-01-15T07:29:19;0.30;99.90
18041;DHT22;9145;48.588;9.250;2024-01-15T07:31:48;0.30;99.90
18041;DHT22;9145;48.588;9.250;2024-01-15T07:34:17;0.30;99.90
18041;DHT22;9145;48.588;9.250;2024-01-15T07:36:44;0.30;99.90
18041;DHT22;9145;48.588;9.250;2024-01-15T07:39:11;0.30;99.90
18041;DHT22;9145;48.588;9.250;2024-01-15T07:41:39;0.30;99.90
18041;DHT22;9145;48.588;9.250;2024-01-15T07:44:06;0.30;99.90
18041;DHT22;9145;48.588;9.250;2024-01-15T07:46:32;0.30;99.90
18041;DHT22;9145;48.588;9.250;2024-01-15T07:48:59;0.40;99.90
18041;DHT22;9145;48.588;9.250;2024-01-15T07:51:27;0.40;99.90
18041;DHT22;9145;48.588;9.250;2024-01-15T07:53:54;0.40;99.90
18041;DHT22;9145;48.588;9.250;2024-01-15T07:56:21;0.40;99.90
18041;DHT22;9145;48.588;9.250;2024-01-15T07:58:48;0.40;99.90
18041;DHT22;9145;48.588;9.250;2024-01-15T08:01:15;0.50;99.90
18041;DHT22;9145;48.588;9.250;2024-01-15T08:03:42;0.50;99.90
18041;DHT22;9145;48.588;9.250;2024-01-15T08:06:09;0.50;99.90
18041;DHT22;9145;48.588;9.250;2024-01-15T08:08:38;0.50;99.90
18041;DHT22;9145;48.588;9.250;2024-01-15T08:11:04;0.50;99.90
18041;DHT22;9145;48.588;9.250;2024-01-15T08:13:31;0.60;99.90
18041;DHT22;9145;48.588;9.250;2024-01-15T08:15:58;0.50;99.90
18041;DHT22;9145;48.588;9.250;2024-01-15T08:18:25;0.60;99.90
18041;DHT22;9145;48.588;9.250;2024-01-15T08:20:52;0.60;99.90
18041;DHT22;9145;48.588;9.250;2024-01-15T08:23:19;0.50;99.90
18041;DHT22;9145;48.588;9.250;2024-01-15T08:25:48;0.60;99.90
18041;DHT22;9145;48.588;9.250;2024-01-15T08:28:16;0.60;99.90
18041;DHT22;9145;48.588;9.250;2024-01-15T08:30:43;0.60;99.90
18041;DHT22;9145;48.588;9.250;2024-01-15T08:33:09;0.60;99.90
18041;DHT22;9145;48.588;9.250;2024-01-15T08:35:36;0.70;99.90
18041;DHT22;9145;48.588;9.250;2024-01-15T08:38:03;0.70;99.90
18041;DHT22;9145;48.588;9.250;2024-01-15T08:40:31;0.70;99.90
18041;DHT22;9145;48.588;9.250;2024-01-15T08:42:59;0.70;99.90
18041;DHT22;9145;48.588;9.250;2024-01-15T08:45:27;0.80;99.90
18041;DHT22;9145;48.588;9.250;2024-01-15T08:47:54;0.80;99.90
18041;DHT22;9145;48.588;9.250;2024-01-15T08:50:21;0.80;99.90
18041;DHT22;9145;48.588;9.250;2024-01-15T08:52:47;0.90;99.90
18041;DHT22;9145;48.588;9.250;2024-01-15T08:55:14;0.90;99.90
18041;DHT22;9145;48.588;9.250;2024-01-15T08:57:41;0.90;99.90
18041;DHT22;9145;48.588;9.250;2024-01-15T09:00:11;0.90;99.90
18041;DHT22;9145;48.588;9.250;2024-01-15T09:02:38;1.00;99.90
18041;DHT22;9145;48.588;9.250;2024-01-15T09:05:05;1.00;99.90
18041;DHT22;9145;48.588;9.250;2024-01-15T09:07:32;1.00;99.90
18041;DHT22;9145;48.588;9.250;2024-01-15T09:09:59;1.10;99.90
18041;DHT22;9145;48.588;9.250;2024-01-15T09:12:26;1.10;99.90
18041;DHT22;9145;48.588;9.250;2024-01-15T09:14:52;1.20;99.90
18041;DHT22;9145;48.588;9.250;2024-01-15T09:17:21;1.20;99.90
18041;DHT22;9145;48.588;9.250;2024-01-15T09:19:49;1.20;99.90
18041;DHT22;9145;48.588;9.250;2024-01-15T09:22:15;1.30;99.90
18041;DHT22;9145;48.588;9.250;2024-01-15T09:24:44;1.30;99.90
18041;DHT22;9145;48.588;9.250;2024-01-15T09:27:10;1.30;99.90
18041;DHT22;9145;48.588;9.250;2024-01-15T09:29:37;1.30;99.90
18041;DHT22;9145;48.588;9.250;2024-01-15T09:32:06;1.40;99.90
18041;DHT22;9145;48.588;9.250;2024-01-15T09:34:35;1.40;99.90
18041;DHT22;9145;48.588;9.250;2024-01-15T09:37:02;1.50;99.90
18041;DHT22;9145;48.588;9.250;2024-01-15T09:39:29;1.50;99.90
18041;DHT22;9145;48.588;9.250;2024-01-15T09:41:57;1.50;99.90
18041;DHT22;9145;48.588;9.250;2024-01-15T09:44:25;1.50;99.90
18041;DHT22;9145;48.588;9.250;2024-01-15T09:46:53;1.50;99.90
18041;DHT22;9145;48.588;9.250;2024-01-15T09:49:21;1.50;99.90
18041;DHT22;9145;48.588;9.250;2024-01-15T09:51:50;1.60;99.90
18041;DHT22;9145;48.588;9.250;2024-01-15T09:54:17;1.60;99.90
18041;DHT22;9145;48.588;9.250;2024-01-15T09:56:45;1.60;99.90
18041;DHT22;9145;48.588;9.250;2024-01-15T09:59:15;1.60;99.90
18041;DHT22;9145;48.588;9.250;2024-01-15T10:01:43;1.60;99.90
18041;DHT22;9145;48.588;9.250;2024-01-15T10:04:10;1.60;99.90
18041;DHT22;9145;48.588;9.250;2024-01-15T10:06:38;1.60;99.90
18041;DHT22;9145;48.588;9.250;2024-01-15T10:09:07;1.60;99.90
18041;DHT22;9145;48.588;9.250;2024-01-15T10:11:34;1.70;99.90
18041;DHT22;9145;48.588;9.250;2024-01-15T10:14:03;1.80;99.90
18041;DHT22;9145;48.588;9.250;2024-01-15T10:16:31;1.70;99.90
18041;DHT22;9145;48.588;9.250;2024-01-15T10:18:57;1.80;99.90
18041;DHT22;9145;48.588;9.250;2024-01-15T10:21:25;1.80;99.90
18041;DHT22;9145;48.588;9.250;2024-01-15T10:23:52;1.80;99.90
18041;DHT22;9145;48.588;9.250;2024-01-15T10:26:24;1.90;99.90
18041;DHT22;9145;48.588;9.250;2024-01-15T10:28:51;1.90;99.90
18041;DHT22;9145;48.588;9.250;2024-01-15T10:31:18;1.90;99.90
18041;DHT22;9145;48.588;9.250;2024-01-15T10:33:47;1.90;99.90
18041;DHT22;9145;48.588;9.250;2024-01-15T10:36:15;1.90;99.90
18041;DHT22;9145;48.588;9.250;2024-01-15T10:38:43;1.90;99.90
18041;DHT22;9145;48.588;9.250;2024-01-15T10:41:10;2.00;99.90
18041;DHT22;9145;48.588;9.250;2024-01-15T10:43:39;2.00;99.90
18041;DHT22;9145;48.588;9.250;2024-01-15T10:46:07;2.00;99.90
18041;DHT22;9145;48.588;9.250;2024-01-15T10:48:34;2.00;99.90
18041;DHT22;9145;48.588;9.250;2024-01-15T10:51:01;2.00;99.90
18041;DHT22;9145;48.588;9.250;2024-01-15T10:53:37;2.10;99.90
18041;DHT22;9145;48.588;9.250;2024-01-15T10:56:05;2.10;99.90
18041;DHT22;9145;48.588;9.250;2024-01-15T10:58:33;2.10;99.90
18041;DHT22;9145;48.588;9.250;2024-01-15T11:01:02;2.10;99.90
18041;DHT22;9145;48.588;9.250;2024-01-15T11:03:30;2.10;99.90
18041;DHT22;9145;48.588;9.250;2024-01-15T11:05:57;2.10;99.90
18041;DHT22;9145;48.588;9.250;2024-01-15T11:08:25;2.10;99.90
18041;DHT22;9145;48.588;9.250;2024-01-15T11:10:52;2.10;99.90
18041;DHT22;9145;48.588;9.250;2024-01-15T11:13:21;2.10;99.90
18041;DHT22;9145;48.588;9.250;2024-01-15T11:15:58;2.20;99.90
18041;DHT22;9145;48.588;9.250;2024-01-15T11:18:28;2.20;99.90
18041;DHT22;9145;48.588;9.250;2024-01-15T11:21:20;2.10;99.90
18041;DHT22;9145;48.588;9.250;2024-01-15T11:23:49;2.10;99.90
18041;DHT22;9145;48.588;9.250;2024-01-15T11:26:34;2.10;99.90
18041;DHT22;9145;48.588;9.250;2024-01-15T11:29:03;2.10;99.90
18041;DHT22;9145;48.588;9.250;2024-01-15T11:32:01;2.10;99.90
18041;DHT22;9145;48.588;9.250;2024-01-15T11:34:53;2.10;99.90
18041;DHT22;9145;48.588;9.250;2024-01-15T11:37:23;2.10;99.90
18041;DHT22;9145;48.588;9.250;2024-01-15T11:39:52;2.10;99.90
18041;DHT22;9145;48.588;9.250;2024-01-15T11:42:20;2.20;99.90
18041;DHT22;9145;48.588;9.250;2024-01-15T11:44:47;2.10;99.90
18041;DHT22;9145;48.588;9.250;2024-01-15T11:47:14;2.10;99.90
18041;DHT22;9145;48.588;9.250;2024-01-15T11:49:59;2.00;99.90
18041;DHT22;9145;48.588;9.250;2024-01-15T11:52:31;2.00;99.90
18041;DHT22;9145;48.588;9.250;2024-01-15T11:55:02;2.10;99.90
18041;DHT22;9145;48.588;9.250;2024-01-15T11:57:40;2.10;99.90
18041;DHT22;9145;48.588;9.250;2024-01-15T12:00:09;2.00;99.90
18041;DHT22;9145;48.588;9.250;2024-01-15T12:02:37;2.00;99.90
18041;DHT22;9145;48.588;9.250;2024-01-15T12:05:06;1.90;99.90
18041;DHT22;9145;48.588;9.250;2024-01-15T12:07:33;1.90;99.90
18041;DHT22;9145;48.588;9.250;2024-01-15T12:10:00;1.90;99.90
18041;DHT22;9145;48.588;9.250;2024-01-15T12:12:33;1.80;99.90
18041;DHT22;9145;48.588;9.250;2024-01-15T12:15:03;1.80;99.90
18041;DHT22;9145;48.588;9.250;2024-01-15T12:17:31;1.80;99.90
18041;DHT22;9145;48.588;9.250;2024-01-15T12:19:57;1.90;99.90
18041;DHT22;9145;48.588;9.250;2024-01-15T12:22:26;1.80;99.90
18041;DHT22;9145;48.588;9.250;2024-01-15T12:24:53;1.80;99.90
18041;DHT22;9145;48.588;9.250;2024-01-15T12:27:21;1.80;99.90
18041;DHT22;9145;48.588;9.250;2024-01-15T12:29:47;1.70;99.90
18041;DHT22;9145;48.588;9.250;2024-01-15T12:32:14;1.70;99.90
18041;DHT22;9145;48.588;9.250;2024-01-15T12:34:41;1.70;99.90
18041;DHT22;9145;48.588;9.250;2024-01-15T12:37:09;1.70;99.90
18041;DHT22;9145;48.588;9.250;2024-01-15T12:39:39;1.70;99.90
18041;DHT22;9145;48.588;9.250;2024-01-15T12:42:06;1.70;99.90
18041;DHT22;9145;48.588;9.250;2024-01-15T12:44:32;1.70;99.90
18041;DHT22;9145;48.588;9.250;2024-01-15T12:47:01;1.70;99.90
18041;DHT22;9145;48.588;9.250;2024-01-15T12:49:28;1.60;99.90
18041;DHT22;9145;48.588;9.250;2024-01-15T12:51:57;1.60;99.90
18041;DHT22;9145;48.588;9.250;2024-01-15T12:54:24;1.60;99.90
18041;DHT22;9145;48.588;9.250;2024-01-15T12:56:52;1.50;99.90
18041;DHT22;9145;48.588;9.250;2024-01-15T12:59:19;1.30;99.90
18041;DHT22;9145;48.588;9.250;2024-01-15T13:01:46;1.30;99.90
18041;DHT22;9145;48.588;9.250;2024-01-15T13:04:21;1.20;99.90
18041;DHT22;9145;48.588;9.250;2024-01-15T13:06:49;1.30;99.90
18041;DHT22;9145;48.588;9.250;2024-01-15T13:09:16;1.30;99.90
18041;DHT22;9145;48.588;9.250;2024-01-15T13:11:43;1.30;99.90
18041;DHT22;9145;48.588;9.250;2024-01-15T13:14:11;1.30;99.90
18041;DHT22;9145;48.588;9.250;2024-01-15T13:16:39;1.30;99.90
18041;DHT22;9145;48.588;9.250;2024-01-15T13:19:07;1.20;99.90
18041;DHT22;9145;48.588;9.250;2024-01-15T13:21:34;1.10;99.90
18041;DHT22;9145;48.588;9.250;2024-01-15T13:24:00;1.10;99.90
18041;DHT22;9145;48.588;9.250;2024-01-15T13:26:28;1.10;99.90
18041;DHT22;9145;48.588;9.250;2024-01-15T13:28:55;1.10;99.90
18041;DHT22;9145;48.588;9.250;2024-01-15T13:31:23;1.10;99.90
18041;DHT22;9145;48.588;9.250;2024-01-15T13:33:50;1.10;99.90
18041;DHT22;9145;48.588;9.250;2024-01-15T13:36:17;1.10;99.90
18041;DHT22;9145;48.588;9.250;2024-01-15T13:38:44;1.00;99.90
18041;DHT22;9145;48.588;9.250;2024-01-15T13:41:10;1.00;99.90
18041;DHT22;9145;48.588;9.250;2024-01-15T13:43:37;0.90;99.90
18041;DHT22;9145;48.588;9.250;2024-01-15T13:46:04;0.80;99.90
18041;DHT22;9145;48.588;9.250;2024-01-15T13:48:32;0.90;99.90
18041;DHT22;9145;48.588;9.250;2024-01-15T13:50:59;0.80;99.90
18041;DHT22;9145;48.588;9.250;2024-01-15T13:53:26;0.80;99.90
18041;DHT22;9145;48.588;9.250;2024-01-15T13:55:53;0.70;99.90
18041;DHT22;9145;48.588;9.250;2024-01-15T13:58:20;0.80;99.90
18041;DHT22;9145;48.588;9.250;2024-01-15T14:00:47;0.80;99.90
18041;DHT22;9145;48.588;9.250;2024-01-15T14:03:14;0.80;99.90
18041;DHT22;9145;48.588;9.250;2024-01-15T14:05:42;0.80;99.90
18041;DHT22;9145;48.588;9.250;2024-01-15T14:08:09;0.80;99.90
18041;DHT22;9145;48.588;9.250;2024-01-15T14:10:36;0.80;99.90
18041;DHT22;9145;48.588;9.250;2024-01-15T14:13:06;0.80;99.90
18041;DHT22;9145;48.588;9.250;2024-01-15T14:15:34;0.90;99.90
18041;DHT22;9145;48.588;9.250;2024-01-15T14:18:01;0.80;99.90
18041;DHT22;9145;48.588;9.250;2024-01-15T14:20:27;0.80;99.90
18041;DHT22;9145;48.588;9.250;2024-01-15T14:22:56;0.90;99.90
18041;DHT22;9145;48.588;9.250;2024-01-15T14:25:22;0.90;99.90
18041;DHT22;9145;48.588;9.250;2024-01-15T14:27:50;0.90;99.90
18041;DHT22;9145;48.588;9.250;2024-01-15T14:30:18;0.80;99.90
18041;DHT22;9145;48.588;9.250;2024-01-15T14:32:44;0.90;99.90
18041;DHT22;9145;48.588;9.250;2024-01-15T14:35:11;0.90;99.90
18041;DHT22;9145;48.588;9.250;2024-01-15T14:37:39;0.90;99.90
18041;DHT22;9145;48.588;9.250;2024-01-15T14:40:08;0.90;99.90
18041;DHT22;9145;48.588;9.250;2024-01-15T14:42:35;0.90;99.90
18041;DHT22;9145;48.588;9.250;2024-01-15T14:45:03;0.90;99.90
18041;DHT22;9145;48.588;9.250;2024-01-15T14:47:34;0.90;99.90
18041;DHT22;9145;48.588;9.250;2024-01-15T14:50:01;0.90;99.90
18041;DHT22;9145;48.588;9.250;2024-01-15T14:52:28;0.80;99.90
18041;DHT22;9145;48.588;9.250;2024-01-15T14:54:55;0.80;99.90
18041;DHT22;9145;48.588;9.250;2024-01-15T14:57:23;0.90;99.90
18041;DHT22;9145;48.588;9.250;2024-01-15T14:59:50;0.90;99.90
18041;DHT22;9145;48.588;9.250;2024-01-15T15:02:17;0.80;99.90
18041;DHT22;9145;48.588;9.250;2024-01-15T15:04:44;0.80;99.90
18041;DHT22;9145;48.588;9.250;2024-01-15T15:07:10;0.80;99.90
18041;DHT22;9145;48.588;9.250;2024-01-15T15:09:38;0.80;99.90
18041;DHT22;9145;48.588;9.250;2024-01-15T15:12:05;0.70;99.90
18041;DHT22;9145;48.588;9.250;2024-01-15T15:14:34;0.60;99.90
18041;DHT22;9145;48.588;9.250;2024-01-15T15:17:04;0.60;99.90
18041;DHT22;9145;48.588;9.250;2024-01-15T15:19:31;0.50;99.90
18041;DHT22;9145;48.588;9.250;2024-01-15T15:21:58;0.50;99.90
18041;DHT22;9145;48.588;9.250;2024-01-15T15:24:25;0.50;99.90
18041;DHT22;9145;48.588;9.250;2024-01-15T15:26:52;0.60;99.90
18041;DHT22;9145;48.588;9.250;2024-01-15T15:29:19;0.60;99.90
18041;DHT22;9145;48.588;9.250;2024-01-15T15:31:47;0.70;99.90
18041;DHT22;9145;48.588;9.250;2024-01-15T15:34:14;0.70;99.90
18041;DHT22;9145;48.588;9.250;2024-01-15T15:36:42;0.70;99.90
18041;DHT22;9145;48.588;9.250;2024-01-15T15:39:08;0.70;99.90
18041;DHT22;9145;48.588;9.250;2024-01-15T15:41:35;0.70;99.90
18041;DHT22;9145;48.588;9.250;2024-01-15T15:44:03;0.70;99.90
18041;DHT22;9145;48.588;9.250;2024-01-15T15:46:30;0.70;99.90
18041;DHT22;9145;48.588;9.250;2024-01-15T15:48:59;0.70;99.90
18041;DHT22;9145;48.588;9.250;2024-01-15T15:51:26;0.70;99.90
18041;DHT22;9145;48.588;9.250;2024-01-15T15:53:53;0.70;99.90
18041;DHT22;9145;48.588;9.250;2024-01-15T15:56:20;0.70;99.90
18041;DHT22;9145;48.588;9.250;2024-01-15T15:58:47;0.70;99.90